sensor_id;sensor_type;location;lat;lon;timestamp;P1;durP1;ratioP1;P2;durP2;ratioP2
55655;SDS011;41530;52.382;5.270;2023-04-30T00:02:57;2.17;;;1.50;;
55655;SDS011;41530;52.382;5.270;2023-04-30T00:09:27;1.83;;;1.30;;
55655;SDS011;41530;52.382;5.270;2023-04-30T00:12:17;2.83;;;1.25;;
55655;SDS011;41530;52.382;5.270;2023-04-30T00:15:10;4.10;;;1.70;;
55655;SDS011;41530;52.382;5.270;2023-04-30T00:18:25;2.30;;;1.35;;
55655;SDS011;41530;52.382;5.270;2023-04-30T00:21:05;1.75;;;1.15;;
55655;SDS011;41530;52.382;5.270;2023-04-30T00:24:15;2.45;;;1.33;;
55655;SDS011;41530;52.382;5.270;2023-04-30T00:27:00;3.60;;;1.40;;
55655;SDS011;41530;52.382;5.270;2023-04-30T00:30:28;2.38;;;1.35;;
55655;SDS011;41530;52.382;5.270;2023-04-30T00:33:29;2.20;;;1.25;;
55655;SDS011;41530;52.382;5.270;2023-04-30T00:36:27;1.92;;;1.40;;
55655;SDS011;41530;52.382;5.270;2023-04-30T00:39:34;3.05;;;1.40;;
55655;SDS011;41530;52.382;5.270;2023-04-30T00:53:08;2.67;;;1.40;;
55655;SDS011;41530;52.382;5.270;2023-04-30T01:00:38;1.58;;;1.20;;
55655;SDS011;41530;52.382;5.270;2023-04-30T01:03:20;2.53;;;1.35;;
55655;SDS011;41530;52.382;5.270;2023-04-30T01:06:45;3.30;;;1.60;;
55655;SDS011;41530;52.382;5.270;2023-04-30T01:09:36;1.75;;;1.42;;
55655;SDS011;41530;52.382;5.270;2023-04-30T01:28:54;3.15;;;1.60;;
55655;SDS011;41530;52.382;5.270;2023-04-30T01:47:59;1.80;;;1.38;;
55655;SDS011;41530;52.382;5.270;2023-04-30T01:50:50;1.70;;;1.30;;
55655;SDS011;41530;52.382;5.270;2023-04-30T01:53:22;1.60;;;1.38;;
55655;SDS011;41530;52.382;5.270;2023-04-30T01:55:56;3.42;;;1.45;;
55655;SDS011;41530;52.382;5.270;2023-04-30T01:58:26;1.60;;;1.40;;
55655;SDS011;41530;52.382;5.270;2023-04-30T02:00:55;2.58;;;1.27;;
55655;SDS011;41530;52.382;5.270;2023-04-30T02:03:21;2.63;;;1.30;;
55655;SDS011;41530;52.382;5.270;2023-04-30T02:05:49;2.10;;;1.58;;
55655;SDS011;41530;52.382;5.270;2023-04-30T02:08:15;2.90;;;1.80;;
55655;SDS011;41530;52.382;5.270;2023-04-30T02:10:42;1.30;;;1.20;;
55655;SDS011;41530;52.382;5.270;2023-04-30T02:13:08;2.13;;;1.33;;
55655;SDS011;41530;52.382;5.270;2023-04-30T02:15:35;3.35;;;1.30;;
55655;SDS011;41530;52.382;5.270;2023-04-30T02:18:02;1.83;;;1.30;;
55655;SDS011;41530;52.382;5.270;2023-04-30T02:20:29;1.63;;;1.30;;
55655;SDS011;41530;52.382;5.270;2023-04-30T02:22:55;1.60;;;1.50;;
55655;SDS011;41530;52.382;5.270;2023-04-30T02:25:22;2.22;;;1.50;;
55655;SDS011;41530;52.382;5.270;2023-04-30T02:27:49;2.10;;;1.40;;
55655;SDS011;41530;52.382;5.270;2023-04-30T02:30:16;1.77;;;1.20;;
55655;SDS011;41530;52.382;5.270;2023-04-30T02:32:45;1.50;;;1.40;;
55655;SDS011;41530;52.382;5.270;2023-04-30T02:35:11;2.40;;;1.67;;
55655;SDS011;41530;52.382;5.270;2023-04-30T02:37:38;1.80;;;1.30;;
55655;SDS011;41530;52.382;5.270;2023-04-30T02:40:05;2.00;;;1.60;;
55655;SDS011;41530;52.382;5.270;2023-04-30T02:42:32;3.30;;;1.60;;
55655;SDS011;41530;52.382;5.270;2023-04-30T02:44:59;1.90;;;1.17;;
55655;SDS011;41530;52.382;5.270;2023-04-30T02:47:25;2.05;;;1.33;;
55655;SDS011;41530;52.382;5.270;2023-04-30T02:49:52;1.70;;;1.40;;
55655;SDS011;41530;52.382;5.270;2023-04-30T02:52:19;1.95;;;1.27;;
55655;SDS011;41530;52.382;5.270;2023-04-30T02:54:45;1.70;;;1.42;;
55655;SDS011;41530;52.382;5.270;2023-04-30T02:57:12;2.42;;;1.20;;
55655;SDS011;41530;52.382;5.270;2023-04-30T02:59:39;1.42;;;1.30;;
55655;SDS011;41530;52.382;5.270;2023-04-30T03:02:05;1.42;;;1.33;;
55655;SDS011;41530;52.382;5.270;2023-04-30T03:04:32;1.50;;;1.40;;
55655;SDS011;41530;52.382;5.270;2023-04-30T03:06:58;3.58;;;1.38;;
55655;SDS011;41530;52.382;5.270;2023-04-30T03:09:25;1.27;;;1.10;;
55655;SDS011;41530;52.382;5.270;2023-04-30T03:11:52;1.75;;;1.25;;
55655;SDS011;41530;52.382;5.270;2023-04-30T03:14:18;1.75;;;1.10;;
55655;SDS011;41530;52.382;5.270;2023-04-30T03:16:45;1.67;;;1.10;;
55655;SDS011;41530;52.382;5.270;2023-04-30T03:19:12;1.92;;;1.20;;
55655;SDS011;41530;52.382;5.270;2023-04-30T03:21:38;1.98;;;1.55;;
55655;SDS011;41530;52.382;5.270;2023-04-30T03:24:05;1.23;;;1.10;;
55655;SDS011;41530;52.382;5.270;2023-04-30T03:26:32;3.00;;;1.38;;
55655;SDS011;41530;52.382;5.270;2023-04-30T03:28:58;1.38;;;0.88;;
55655;SDS011;41530;52.382;5.270;2023-04-30T03:31:25;1.33;;;1.10;;
55655;SDS011;41530;52.382;5.270;2023-04-30T03:33:52;2.20;;;1.42;;
55655;SDS011;41530;52.382;5.270;2023-04-30T03:36:19;1.63;;;1.10;;
55655;SDS011;41530;52.382;5.270;2023-04-30T03:38:46;3.15;;;1.27;;
55655;SDS011;41530;52.382;5.270;2023-04-30T03:41:12;1.60;;;1.10;;
55655;SDS011;41530;52.382;5.270;2023-04-30T03:43:39;1.60;;;1.08;;
55655;SDS011;41530;52.382;5.270;2023-04-30T03:46:06;1.30;;;1.20;;
55655;SDS011;41530;52.382;5.270;2023-04-30T03:48:32;1.35;;;1.25;;
55655;SDS011;41530;52.382;5.270;2023-04-30T03:50:59;1.45;;;1.23;;
55655;SDS011;41530;52.382;5.270;2023-04-30T03:53:26;1.80;;;1.30;;
55655;SDS011;41530;52.382;5.270;2023-04-30T03:55:53;2.08;;;1.20;;
55655;SDS011;41530;52.382;5.270;2023-04-30T03:58:20;2.75;;;1.17;;
55655;SDS011;41530;52.382;5.270;2023-04-30T04:00:47;1.77;;;1.33;;
55655;SDS011;41530;52.382;5.270;2023-04-30T04:03:14;1.63;;;1.17;;
55655;SDS011;41530;52.382;5.270;2023-04-30T04:05:41;1.90;;;1.40;;
55655;SDS011;41530;52.382;5.270;2023-04-30T04:08:08;1.60;;;1.20;;
55655;SDS011;41530;52.382;5.270;2023-04-30T04:10:35;1.80;;;1.30;;
55655;SDS011;41530;52.382;5.270;2023-04-30T04:13:02;1.48;;;1.20;;
55655;SDS011;41530;52.382;5.270;2023-04-30T04:15:28;1.63;;;1.30;;
55655;SDS011;41530;52.382;5.270;2023-04-30T04:17:55;1.58;;;1.10;;
55655;SDS011;41530;52.382;5.270;2023-04-30T04:20:22;2.55;;;1.33;;
55655;SDS011;41530;52.382;5.270;2023-04-30T04:22:48;1.08;;;0.93;;
55655;SDS011;41530;52.382;5.270;2023-04-30T04:25:15;1.23;;;1.13;;
55655;SDS011;41530;52.382;5.270;2023-04-30T04:27:44;1.52;;;1.13;;
55655;SDS011;41530;52.382;5.270;2023-04-30T04:30:11;1.77;;;1.15;;
55655;SDS011;41530;52.382;5.270;2023-04-30T04:32:38;1.85;;;1.20;;
55655;SDS011;41530;52.382;5.270;2023-04-30T04:35:13;1.77;;;1.15;;
55655;SDS011;41530;52.382;5.270;2023-04-30T04:37:40;2.75;;;1.23;;
55655;SDS011;41530;52.382;5.270;2023-04-30T04:40:07;2.80;;;1.13;;
55655;SDS011;41530;52.382;5.270;2023-04-30T04:42:35;1.27;;;1.15;;
55655;SDS011;41530;52.382;5.270;2023-04-30T04:45:06;1.45;;;1.30;;
55655;SDS011;41530;52.382;5.270;2023-04-30T04:47:33;2.38;;;1.40;;
55655;SDS011;41530;52.382;5.270;2023-04-30T04:50:00;1.70;;;1.20;;
55655;SDS011;41530;52.382;5.270;2023-04-30T04:52:26;2.55;;;1.35;;
55655;SDS011;41530;52.382;5.270;2023-04-30T04:54:53;2.25;;;1.23;;
55655;SDS011;41530;52.382;5.270;2023-04-30T04:57:20;2.55;;;1.70;;
55655;SDS011;41530;52.382;5.270;2023-04-30T04:59:46;1.67;;;1.08;;
55655;SDS011;41530;52.382;5.270;2023-04-30T05:02:13;1.48;;;1.38;;
55655;SDS011;41530;52.382;5.270;2023-04-30T05:04:39;1.80;;;1.10;;
55655;SDS011;41530;52.382;5.270;2023-04-30T05:07:07;1.40;;;1.30;;
55655;SDS011;41530;52.382;5.270;2023-04-30T05:09:33;1.25;;;1.15;;
55655;SDS011;41530;52.382;5.270;2023-04-30T05:12:00;1.30;;;1.20;;
55655;SDS011;41530;52.382;5.270;2023-04-30T05:14:27;1.60;;;1.27;;
55655;SDS011;41530;52.382;5.270;2023-04-30T05:16:54;2.92;;;1.50;;
55655;SDS011;41530;52.382;5.270;2023-04-30T05:19:20;1.60;;;1.40;;
55655;SDS011;41530;52.382;5.270;2023-04-30T05:21:47;2.05;;;1.60;;
55655;SDS011;41530;52.382;5.270;2023-04-30T05:24:14;2.30;;;1.40;;
55655;SDS011;41530;52.382;5.270;2023-04-30T05:26:40;1.60;;;1.38;;
55655;SDS011;41530;52.382;5.270;2023-04-30T05:29:07;3.20;;;1.70;;
55655;SDS011;41530;52.382;5.270;2023-04-30T05:31:34;2.17;;;1.50;;
55655;SDS011;41530;52.382;5.270;2023-04-30T05:34:02;2.15;;;1.55;;
55655;SDS011;41530;52.382;5.270;2023-04-30T05:36:28;2.00;;;1.60;;
55655;SDS011;41530;52.382;5.270;2023-04-30T05:38:56;1.50;;;1.30;;
55655;SDS011;41530;52.382;5.270;2023-04-30T05:41:23;1.77;;;1.17;;
55655;SDS011;41530;52.382;5.270;2023-04-30T05:43:49;1.30;;;1.20;;
55655;SDS011;41530;52.382;5.270;2023-04-30T05:46:16;1.90;;;1.10;;
55655;SDS011;41530;52.382;5.270;2023-04-30T05:48:42;1.50;;;1.10;;
55655;SDS011;41530;52.382;5.270;2023-04-30T05:51:09;2.08;;;1.25;;
55655;SDS011;41530;52.382;5.270;2023-04-30T05:53:36;1.50;;;1.13;;
55655;SDS011;41530;52.382;5.270;2023-04-30T05:56:02;1.67;;;1.10;;
55655;SDS011;41530;52.382;5.270;2023-04-30T05:58:29;1.20;;;1.05;;
55655;SDS011;41530;52.382;5.270;2023-04-30T06:00:55;1.20;;;1.10;;
55655;SDS011;41530;52.382;5.270;2023-04-30T06:03:22;1.70;;;1.10;;
55655;SDS011;41530;52.382;5.270;2023-04-30T06:05:49;1.48;;;1.38;;
55655;SDS011;41530;52.382;5.270;2023-04-30T06:08:15;2.47;;;1.05;;
55655;SDS011;41530;52.382;5.270;2023-04-30T06:10:42;1.00;;;0.93;;
55655;SDS011;41530;52.382;5.270;2023-04-30T06:13:09;1.77;;;1.10;;
55655;SDS011;41530;52.382;5.270;2023-04-30T06:15:35;1.45;;;1.13;;
55655;SDS011;41530;52.382;5.270;2023-04-30T06:18:02;0.98;;;0.88;;
55655;SDS011;41530;52.382;5.270;2023-04-30T06:20:29;1.20;;;1.10;;
55655;SDS011;41530;52.382;5.270;2023-04-30T06:22:55;2.03;;;1.27;;
55655;SDS011;41530;52.382;5.270;2023-04-30T06:25:22;1.55;;;1.17;;
55655;SDS011;41530;52.382;5.270;2023-04-30T06:27:48;1.73;;;1.05;;
55655;SDS011;41530;52.382;5.270;2023-04-30T06:30:16;3.53;;;1.15;;
55655;SDS011;41530;52.382;5.270;2023-04-30T06:32:43;1.38;;;1.25;;
55655;SDS011;41530;52.382;5.270;2023-04-30T06:35:10;1.30;;;0.85;;
55655;SDS011;41530;52.382;5.270;2023-04-30T06:37:36;1.30;;;1.17;;
55655;SDS011;41530;52.382;5.270;2023-04-30T06:40:03;3.95;;;1.10;;
55655;SDS011;41530;52.382;5.270;2023-04-30T06:42:31;1.55;;;0.80;;
55655;SDS011;41530;52.382;5.270;2023-04-30T06:45:00;1.30;;;0.82;;
55655;SDS011;41530;52.382;5.270;2023-04-30T06:47:31;1.33;;;1.23;;
55655;SDS011;41530;52.382;5.270;2023-04-30T06:50:03;2.50;;;0.88;;
55655;SDS011;41530;52.382;5.270;2023-04-30T06:52:30;0.80;;;0.80;;
55655;SDS011;41530;52.382;5.270;2023-04-30T06:54:57;3.63;;;0.93;;
55655;SDS011;41530;52.382;5.270;2023-04-30T06:57:23;2.05;;;1.15;;
55655;SDS011;41530;52.382;5.270;2023-04-30T06:59:50;1.42;;;1.00;;
55655;SDS011;41530;52.382;5.270;2023-04-30T07:02:17;3.38;;;1.05;;
55655;SDS011;41530;52.382;5.270;2023-04-30T07:04:47;1.70;;;1.20;;
55655;SDS011;41530;52.382;5.270;2023-04-30T07:07:14;3.20;;;1.33;;
55655;SDS011;41530;52.382;5.270;2023-04-30T07:09:41;2.13;;;1.23;;
55655;SDS011;41530;52.382;5.270;2023-04-30T07:12:07;3.28;;;1.30;;
55655;SDS011;41530;52.382;5.270;2023-04-30T07:14:36;2.20;;;1.00;;
55655;SDS011;41530;52.382;5.270;2023-04-30T07:17:02;3.20;;;1.00;;
55655;SDS011;41530;52.382;5.270;2023-04-30T07:19:29;1.95;;;1.17;;
55655;SDS011;41530;52.382;5.270;2023-04-30T07:21:56;2.45;;;1.10;;
55655;SDS011;41530;52.382;5.270;2023-04-30T07:24:23;3.80;;;1.20;;
55655;SDS011;41530;52.382;5.270;2023-04-30T07:26:50;2.17;;;1.30;;
55655;SDS011;41530;52.382;5.270;2023-04-30T07:29:16;3.10;;;1.08;;
55655;SDS011;41530;52.382;5.270;2023-04-30T07:31:43;2.33;;;1.23;;
55655;SDS011;41530;52.382;5.270;2023-04-30T07:34:10;1.52;;;1.05;;
55655;SDS011;41530;52.382;5.270;2023-04-30T07:36:37;3.20;;;1.50;;
55655;SDS011;41530;52.382;5.270;2023-04-30T07:39:04;2.60;;;1.05;;
55655;SDS011;41530;52.382;5.270;2023-04-30T07:41:31;1.75;;;1.10;;
55655;SDS011;41530;52.382;5.270;2023-04-30T07:43:57;3.08;;;1.17;;
55655;SDS011;41530;52.382;5.270;2023-04-30T07:46:25;2.25;;;1.17;;
55655;SDS011;41530;52.382;5.270;2023-04-30T07:48:51;2.88;;;1.20;;
55655;SDS011;41530;52.382;5.270;2023-04-30T07:51:18;2.70;;;1.20;;
55655;SDS011;41530;52.382;5.270;2023-04-30T07:53:44;4.25;;;1.00;;
55655;SDS011;41530;52.382;5.270;2023-04-30T07:56:12;3.92;;;1.10;;
55655;SDS011;41530;52.382;5.270;2023-04-30T07:58:38;2.78;;;1.25;;
55655;SDS011;41530;52.382;5.270;2023-04-30T08:01:05;2.47;;;1.20;;
55655;SDS011;41530;52.382;5.270;2023-04-30T08:03:31;1.77;;;1.05;;
55655;SDS011;41530;52.382;5.270;2023-04-30T08:05:58;2.08;;;1.05;;
55655;SDS011;41530;52.382;5.270;2023-04-30T08:08:25;2.78;;;1.00;;
55655;SDS011;41530;52.382;5.270;2023-04-30T08:10:51;5.57;;;1.02;;
55655;SDS011;41530;52.382;5.270;2023-04-30T08:13:18;1.40;;;1.00;;
55655;SDS011;41530;52.382;5.270;2023-04-30T08:15:45;0.93;;;0.90;;
55655;SDS011;41530;52.382;5.270;2023-04-30T08:18:12;1.33;;;0.80;;
55655;SDS011;41530;52.382;5.270;2023-04-30T08:20:39;1.08;;;0.70;;
55655;SDS011;41530;52.382;5.270;2023-04-30T08:23:05;3.10;;;1.20;;
55655;SDS011;41530;52.382;5.270;2023-04-30T08:25:32;2.45;;;0.93;;
55655;SDS011;41530;52.382;5.270;2023-04-30T08:27:59;2.25;;;0.88;;
55655;SDS011;41530;52.382;5.270;2023-04-30T08:30:26;1.35;;;0.70;;
55655;SDS011;41530;52.382;5.270;2023-04-30T08:32:52;2.03;;;0.80;;
55655;SDS011;41530;52.382;5.270;2023-04-30T08:35:22;4.00;;;1.08;;
55655;SDS011;41530;52.382;5.270;2023-04-30T08:37:49;1.20;;;0.70;;
55655;SDS011;41530;52.382;5.270;2023-04-30T08:40:15;1.27;;;0.85;;
55655;SDS011;41530;52.382;5.270;2023-04-30T08:42:44;1.13;;;0.93;;
55655;SDS011;41530;52.382;5.270;2023-04-30T08:45:15;3.15;;;1.10;;
55655;SDS011;41530;52.382;5.270;2023-04-30T08:47:43;1.92;;;0.85;;
55655;SDS011;41530;52.382;5.270;2023-04-30T08:50:10;3.05;;;0.90;;
55655;SDS011;41530;52.382;5.270;2023-04-30T08:52:37;1.10;;;0.70;;
55655;SDS011;41530;52.382;5.270;2023-04-30T08:55:05;2.03;;;0.98;;
55655;SDS011;41530;52.382;5.270;2023-04-30T08:57:33;1.70;;;0.80;;
55655;SDS011;41530;52.382;5.270;2023-04-30T09:00:01;2.17;;;0.90;;
55655;SDS011;41530;52.382;5.270;2023-04-30T09:02:30;1.23;;;0.65;;
55655;SDS011;41530;52.382;5.270;2023-04-30T09:04:58;1.63;;;0.70;;
55655;SDS011;41530;52.382;5.270;2023-04-30T09:07:25;1.58;;;0.85;;
55655;SDS011;41530;52.382;5.270;2023-04-30T09:09:54;3.22;;;0.95;;
55655;SDS011;41530;52.382;5.270;2023-04-30T09:12:21;2.00;;;0.70;;
55655;SDS011;41530;52.382;5.270;2023-04-30T09:15:00;1.10;;;0.80;;
55655;SDS011;41530;52.382;5.270;2023-04-30T09:17:30;3.40;;;0.90;;
55655;SDS011;41530;52.382;5.270;2023-04-30T09:20:10;1.23;;;0.70;;
55655;SDS011;41530;52.382;5.270;2023-04-30T09:22:39;2.30;;;0.90;;
55655;SDS011;41530;52.382;5.270;2023-04-30T09:25:07;2.28;;;0.80;;
55655;SDS011;41530;52.382;5.270;2023-04-30T09:27:35;1.60;;;0.73;;
55655;SDS011;41530;52.382;5.270;2023-04-30T09:30:02;1.58;;;0.70;;
55655;SDS011;41530;52.382;5.270;2023-04-30T09:32:30;1.38;;;0.60;;
55655;SDS011;41530;52.382;5.270;2023-04-30T09:34:57;2.38;;;1.05;;
55655;SDS011;41530;52.382;5.270;2023-04-30T09:37:36;2.25;;;0.85;;
55655;SDS011;41530;52.382;5.270;2023-04-30T09:40:03;2.17;;;0.90;;
55655;SDS011;41530;52.382;5.270;2023-04-30T09:42:30;1.13;;;0.63;;
55655;SDS011;41530;52.382;5.270;2023-04-30T09:44:57;1.75;;;0.70;;
55655;SDS011;41530;52.382;5.270;2023-04-30T09:47:23;1.08;;;0.77;;
55655;SDS011;41530;52.382;5.270;2023-04-30T09:49:55;2.05;;;0.80;;
55655;SDS011;41530;52.382;5.270;2023-04-30T09:52:24;2.20;;;0.80;;
55655;SDS011;41530;52.382;5.270;2023-04-30T09:54:51;1.83;;;0.90;;
55655;SDS011;41530;52.382;5.270;2023-04-30T09:57:17;2.15;;;0.70;;
55655;SDS011;41530;52.382;5.270;2023-04-30T09:59:48;1.67;;;0.80;;
55655;SDS011;41530;52.382;5.270;2023-04-30T10:02:18;2.70;;;0.60;;
55655;SDS011;41530;52.382;5.270;2023-04-30T10:04:47;1.63;;;0.60;;
55655;SDS011;41530;52.382;5.270;2023-04-30T10:07:19;1.80;;;0.60;;
55655;SDS011;41530;52.382;5.270;2023-04-30T10:09:49;2.65;;;0.80;;
55655;SDS011;41530;52.382;5.270;2023-04-30T10:12:26;1.98;;;0.60;;
55655;SDS011;41530;52.382;5.270;2023-04-30T10:15:08;1.77;;;0.60;;
55655;SDS011;41530;52.382;5.270;2023-04-30T10:17:40;5.05;;;0.90;;
55655;SDS011;41530;52.382;5.270;2023-04-30T10:20:08;1.95;;;0.77;;
55655;SDS011;41530;52.382;5.270;2023-04-30T10:22:36;1.92;;;0.80;;
55655;SDS011;41530;52.382;5.270;2023-04-30T10:25:03;1.17;;;0.73;;
55655;SDS011;41530;52.382;5.270;2023-04-30T10:27:31;1.52;;;0.90;;
55655;SDS011;41530;52.382;5.270;2023-04-30T10:29:58;2.20;;;0.80;;
55655;SDS011;41530;52.382;5.270;2023-04-30T10:32:27;1.25;;;0.82;;
55655;SDS011;41530;52.382;5.270;2023-04-30T10:35:13;1.48;;;0.85;;
55655;SDS011;41530;52.382;5.270;2023-04-30T10:37:50;2.28;;;0.60;;
55655;SDS011;41530;52.382;5.270;2023-04-30T10:40:21;2.90;;;0.85;;
55655;SDS011;41530;52.382;5.270;2023-04-30T10:42:48;1.60;;;0.90;;
55655;SDS011;41530;52.382;5.270;2023-04-30T10:45:15;1.73;;;0.98;;
55655;SDS011;41530;52.382;5.270;2023-04-30T10:47:42;2.28;;;1.08;;
55655;SDS011;41530;52.382;5.270;2023-04-30T10:50:12;0.98;;;0.88;;
55655;SDS011;41530;52.382;5.270;2023-04-30T10:52:39;1.25;;;0.68;;
55655;SDS011;41530;52.382;5.270;2023-04-30T10:55:06;2.22;;;0.90;;
55655;SDS011;41530;52.382;5.270;2023-04-30T10:57:40;1.08;;;0.80;;
55655;SDS011;41530;52.382;5.270;2023-04-30T11:07:34;1.40;;;0.90;;
55655;SDS011;41530;52.382;5.270;2023-04-30T11:10:01;1.63;;;0.70;;
55655;SDS011;41530;52.382;5.270;2023-04-30T11:12:28;0.98;;;0.73;;
55655;SDS011;41530;52.382;5.270;2023-04-30T11:15:06;1.00;;;0.70;;
55655;SDS011;41530;52.382;5.270;2023-04-30T11:17:38;1.27;;;0.80;;
55655;SDS011;41530;52.382;5.270;2023-04-30T11:20:05;2.50;;;0.73;;
55655;SDS011;41530;52.382;5.270;2023-04-30T11:22:37;1.58;;;0.75;;
55655;SDS011;41530;52.382;5.270;2023-04-30T11:25:05;1.70;;;0.70;;
55655;SDS011;41530;52.382;5.270;2023-04-30T11:27:38;1.38;;;0.70;;
55655;SDS011;41530;52.382;5.270;2023-04-30T11:30:11;1.45;;;0.80;;
55655;SDS011;41530;52.382;5.270;2023-04-30T11:32:42;1.48;;;0.73;;
55655;SDS011;41530;52.382;5.270;2023-04-30T11:35:13;1.80;;;0.80;;
55655;SDS011;41530;52.382;5.270;2023-04-30T11:37:43;5.80;;;0.85;;
55655;SDS011;41530;52.382;5.270;2023-04-30T11:40:11;2.17;;;0.80;;
55655;SDS011;41530;52.382;5.270;2023-04-30T11:42:40;1.75;;;0.90;;
55655;SDS011;41530;52.382;5.270;2023-04-30T11:45:12;0.60;;;0.60;;
55655;SDS011;41530;52.382;5.270;2023-04-30T11:47:46;1.67;;;0.90;;
55655;SDS011;41530;52.382;5.270;2023-04-30T11:50:15;3.00;;;0.98;;
55655;SDS011;41530;52.382;5.270;2023-04-30T11:52:47;1.27;;;0.80;;
55655;SDS011;41530;52.382;5.270;2023-04-30T11:55:16;1.30;;;0.57;;
55655;SDS011;41530;52.382;5.270;2023-04-30T11:57:44;0.60;;;0.60;;
55655;SDS011;41530;52.382;5.270;2023-04-30T12:00:13;0.70;;;0.68;;
55655;SDS011;41530;52.382;5.270;2023-04-30T12:02:42;1.38;;;0.60;;
55655;SDS011;41530;52.382;5.270;2023-04-30T12:05:17;0.60;;;0.57;;
55655;SDS011;41530;52.382;5.270;2023-04-30T12:08:02;0.70;;;0.70;;
55655;SDS011;41530;52.382;5.270;2023-04-30T12:10:31;1.17;;;0.70;;
55655;SDS011;41530;52.382;5.270;2023-04-30T12:12:58;0.70;;;0.65;;
55655;SDS011;41530;52.382;5.270;2023-04-30T12:15:25;0.52;;;0.52;;
55655;SDS011;41530;52.382;5.270;2023-04-30T12:17:56;1.40;;;0.63;;
55655;SDS011;41530;52.382;5.270;2023-04-30T12:20:25;1.25;;;0.70;;
55655;SDS011;41530;52.382;5.270;2023-04-30T12:22:54;0.73;;;0.73;;
55655;SDS011;41530;52.382;5.270;2023-04-30T12:25:21;1.05;;;0.70;;
55655;SDS011;41530;52.382;5.270;2023-04-30T12:27:49;1.33;;;0.90;;
55655;SDS011;41530;52.382;5.270;2023-04-30T12:30:21;0.98;;;0.65;;
55655;SDS011;41530;52.382;5.270;2023-04-30T12:32:52;1.45;;;0.60;;
55655;SDS011;41530;52.382;5.270;2023-04-30T12:35:22;0.63;;;0.60;;
55655;SDS011;41530;52.382;5.270;2023-04-30T12:37:50;1.05;;;0.77;;
55655;SDS011;41530;52.382;5.270;2023-04-30T12:40:26;1.48;;;0.60;;
55655;SDS011;41530;52.382;5.270;2023-04-30T12:43:00;2.50;;;0.60;;
55655;SDS011;41530;52.382;5.270;2023-04-30T12:45:44;0.70;;;0.50;;
55655;SDS011;41530;52.382;5.270;2023-04-30T12:48:12;0.98;;;0.70;;
55655;SDS011;41530;52.382;5.270;2023-04-30T12:50:40;0.55;;;0.55;;
55655;SDS011;41530;52.382;5.270;2023-04-30T12:53:07;1.58;;;0.73;;
55655;SDS011;41530;52.382;5.270;2023-04-30T12:55:34;1.13;;;0.60;;
55655;SDS011;41530;52.382;5.270;2023-04-30T12:58:03;0.55;;;0.55;;
55655;SDS011;41530;52.382;5.270;2023-04-30T13:03:11;0.50;;;0.50;;
55655;SDS011;41530;52.382;5.270;2023-04-30T13:05:42;1.83;;;0.60;;
55655;SDS011;41530;52.382;5.270;2023-04-30T13:08:14;2.70;;;0.60;;
55655;SDS011;41530;52.382;5.270;2023-04-30T13:10:42;0.73;;;0.68;;
55655;SDS011;41530;52.382;5.270;2023-04-30T13:13:09;0.50;;;0.50;;
55655;SDS011;41530;52.382;5.270;2023-04-30T13:15:37;1.00;;;0.70;;
55655;SDS011;41530;52.382;5.270;2023-04-30T13:18:04;0.95;;;0.60;;
55655;SDS011;41530;52.382;5.270;2023-04-30T13:20:37;0.60;;;0.60;;
55655;SDS011;41530;52.382;5.270;2023-04-30T13:23:04;2.97;;;0.60;;
55655;SDS011;41530;52.382;5.270;2023-04-30T13:25:32;2.30;;;0.63;;
55655;SDS011;41530;52.382;5.270;2023-04-30T13:27:59;3.33;;;0.60;;
55655;SDS011;41530;52.382;5.270;2023-04-30T13:30:26;0.65;;;0.57;;
55655;SDS011;41530;52.382;5.270;2023-04-30T13:32:53;0.73;;;0.57;;
55655;SDS011;41530;52.382;5.270;2023-04-30T13:35:20;0.73;;;0.50;;
55655;SDS011;41530;52.382;5.270;2023-04-30T13:37:47;0.88;;;0.68;;
55655;SDS011;41530;52.382;5.270;2023-04-30T13:40:17;1.65;;;0.50;;
55655;SDS011;41530;52.382;5.270;2023-04-30T13:42:45;5.05;;;0.63;;
55655;SDS011;41530;52.382;5.270;2023-04-30T13:45:14;1.65;;;0.60;;
55655;SDS011;41530;52.382;5.270;2023-04-30T13:47:41;0.70;;;0.47;;
55655;SDS011;41530;52.382;5.270;2023-04-30T13:50:08;1.65;;;0.65;;
55655;SDS011;41530;52.382;5.270;2023-04-30T13:52:35;1.35;;;0.80;;
55655;SDS011;41530;52.382;5.270;2023-04-30T13:55:02;1.83;;;0.70;;
55655;SDS011;41530;52.382;5.270;2023-04-30T13:57:31;1.20;;;0.75;;
55655;SDS011;41530;52.382;5.270;2023-04-30T14:00:00;0.80;;;0.60;;
55655;SDS011;41530;52.382;5.270;2023-04-30T14:02:27;1.02;;;0.70;;
55655;SDS011;41530;52.382;5.270;2023-04-30T14:04:54;1.30;;;0.80;;
55655;SDS011;41530;52.382;5.270;2023-04-30T14:07:31;1.33;;;0.50;;
55655;SDS011;41530;52.382;5.270;2023-04-30T14:09:58;2.00;;;0.70;;
55655;SDS011;41530;52.382;5.270;2023-04-30T14:12:25;1.23;;;0.52;;
55655;SDS011;41530;52.382;5.270;2023-04-30T14:14:51;0.88;;;0.60;;
55655;SDS011;41530;52.382;5.270;2023-04-30T14:17:18;0.98;;;0.70;;
55655;SDS011;41530;52.382;5.270;2023-04-30T14:19:45;2.08;;;0.75;;
55655;SDS011;41530;52.382;5.270;2023-04-30T14:22:12;1.38;;;0.60;;
55655;SDS011;41530;52.382;5.270;2023-04-30T14:24:39;1.67;;;0.77;;
55655;SDS011;41530;52.382;5.270;2023-04-30T14:27:06;1.45;;;0.52;;
55655;SDS011;41530;52.382;5.270;2023-04-30T14:29:32;1.73;;;0.90;;
55655;SDS011;41530;52.382;5.270;2023-04-30T14:31:59;1.65;;;0.70;;
55655;SDS011;41530;52.382;5.270;2023-04-30T14:34:26;0.93;;;0.65;;
55655;SDS011;41530;52.382;5.270;2023-04-30T14:36:53;0.50;;;0.50;;
55655;SDS011;41530;52.382;5.270;2023-04-30T14:39:20;0.82;;;0.52;;
55655;SDS011;41530;52.382;5.270;2023-04-30T14:41:46;0.95;;;0.77;;
55655;SDS011;41530;52.382;5.270;2023-04-30T14:44:13;0.55;;;0.50;;
55655;SDS011;41530;52.382;5.270;2023-04-30T14:46:39;2.08;;;0.80;;
55655;SDS011;41530;52.382;5.270;2023-04-30T14:49:06;2.13;;;0.73;;
55655;SDS011;41530;52.382;5.270;2023-04-30T14:51:33;0.60;;;0.60;;
55655;SDS011;41530;52.382;5.270;2023-04-30T14:54:00;1.08;;;0.55;;
55655;SDS011;41530;52.382;5.270;2023-04-30T14:56:27;1.15;;;0.75;;
55655;SDS011;41530;52.382;5.270;2023-04-30T14:58:54;0.65;;;0.50;;
55655;SDS011;41530;52.382;5.270;2023-04-30T15:01:21;4.70;;;0.70;;
55655;SDS011;41530;52.382;5.270;2023-04-30T15:03:47;1.05;;;0.50;;
55655;SDS011;41530;52.382;5.270;2023-04-30T15:06:14;1.45;;;0.60;;
55655;SDS011;41530;52.382;5.270;2023-04-30T15:08:41;2.13;;;1.13;;
55655;SDS011;41530;52.382;5.270;2023-04-30T15:11:08;0.45;;;0.45;;
55655;SDS011;41530;52.382;5.270;2023-04-30T15:13:35;1.00;;;0.80;;
55655;SDS011;41530;52.382;5.270;2023-04-30T15:16:02;0.50;;;0.50;;
55655;SDS011;41530;52.382;5.270;2023-04-30T15:18:30;0.85;;;0.50;;
55655;SDS011;41530;52.382;5.270;2023-04-30T15:20:57;0.68;;;0.50;;
55655;SDS011;41530;52.382;5.270;2023-04-30T15:23:24;1.50;;;0.73;;
55655;SDS011;41530;52.382;5.270;2023-04-30T15:25:51;0.88;;;0.47;;
55655;SDS011;41530;52.382;5.270;2023-04-30T15:28:17;0.50;;;0.50;;
55655;SDS011;41530;52.382;5.270;2023-04-30T15:30:44;1.08;;;0.55;;
55655;SDS011;41530;52.382;5.270;2023-04-30T15:33:11;0.60;;;0.60;;
55655;SDS011;41530;52.382;5.270;2023-04-30T15:35:38;2.15;;;0.73;;
55655;SDS011;41530;52.382;5.270;2023-04-30T15:38:05;0.73;;;0.60;;
55655;SDS011;41530;52.382;5.270;2023-04-30T15:40:31;0.60;;;0.60;;
55655;SDS011;41530;52.382;5.270;2023-04-30T15:42:58;1.55;;;0.60;;
55655;SDS011;41530;52.382;5.270;2023-04-30T15:45:25;0.70;;;0.60;;
55655;SDS011;41530;52.382;5.270;2023-04-30T15:47:54;0.93;;;0.70;;
55655;SDS011;41530;52.382;5.270;2023-04-30T15:50:21;1.60;;;0.60;;
55655;SDS011;41530;52.382;5.270;2023-04-30T15:52:47;0.90;;;0.50;;
55655;SDS011;41530;52.382;5.270;2023-04-30T15:55:14;1.10;;;0.50;;
55655;SDS011;41530;52.382;5.270;2023-04-30T15:57:41;1.25;;;0.60;;
55655;SDS011;41530;52.382;5.270;2023-04-30T16:00:08;0.60;;;0.50;;
55655;SDS011;41530;52.382;5.270;2023-04-30T16:02:35;1.63;;;0.50;;
55655;SDS011;41530;52.382;5.270;2023-04-30T16:05:02;1.50;;;0.60;;